Thermopolis, Wyoming
Current Conditions -  °F | °C
As of 12:15 AM on Wednesday 22 Oct 2014 (Local Time) from KTBX Reporting Station
Clear Clear  
Wind Chill: 37°   Ceiling: Unl
Heat Index: 41°   Visibility: 10mi
Dew Point: 14°   Wind: 6mph
Humidity: 33%   Direction: 360°N
Pressure: 30.1"   Gusts: 9mph
Location:  43.65°N, 108.21°W
Report Text: KTBX 220615Z AUTO 36005G08KT 10SM CLR 05/M10 A3010 RMK AO2
Loading
Personal Weather Stations






























Interactive Weather Map
Tropical Storm Tracking
New forecast layout! Learn more

10-Day Weather Forecast

Advertisements
Track Severe Weather on mobile